sensor_id;sensor_type;location;lat;lon;timestamp;P1;durP1;ratioP1;P2;durP2;ratioP2
1376;SDS011;682;52.502;13.488;2023-02-15T00:02:17;40.13;;;25.27;;
1376;SDS011;682;52.502;13.488;2023-02-15T00:04:48;35.30;;;24.73;;
1376;SDS011;682;52.502;13.488;2023-02-15T00:07:15;37.15;;;25.13;;
1376;SDS011;682;52.502;13.488;2023-02-15T00:09:47;34.28;;;24.55;;
1376;SDS011;682;52.502;13.488;2023-02-15T00:12:17;39.45;;;24.75;;
1376;SDS011;682;52.502;13.488;2023-02-15T00:14:47;34.55;;;23.60;;
1376;SDS011;682;52.502;13.488;2023-02-15T00:17:17;40.95;;;25.58;;
1376;SDS011;682;52.502;13.488;2023-02-15T00:19:47;37.20;;;26.33;;
1376;SDS011;682;52.502;13.488;2023-02-15T00:22:18;37.35;;;23.48;;
1376;SDS011;682;52.502;13.488;2023-02-15T00:24:49;39.70;;;25.67;;
1376;SDS011;682;52.502;13.488;2023-02-15T00:27:19;36.17;;;25.17;;
1376;SDS011;682;52.502;13.488;2023-02-15T00:29:50;35.60;;;23.05;;
1376;SDS011;682;52.502;13.488;2023-02-15T00:32:18;36.17;;;24.65;;
1376;SDS011;682;52.502;13.488;2023-02-15T00:34:47;36.00;;;24.10;;
1376;SDS011;682;52.502;13.488;2023-02-15T00:37:15;36.75;;;24.73;;
1376;SDS011;682;52.502;13.488;2023-02-15T00:39:45;36.80;;;24.52;;
1376;SDS011;682;52.502;13.488;2023-02-15T00:42:17;38.83;;;25.42;;
1376;SDS011;682;52.502;13.488;2023-02-15T00:44:45;34.15;;;22.30;;
1376;SDS011;682;52.502;13.488;2023-02-15T00:47:13;38.92;;;24.67;;
1376;SDS011;682;52.502;13.488;2023-02-15T00:49:47;38.40;;;25.23;;
1376;SDS011;682;52.502;13.488;2023-02-15T00:52:14;34.75;;;24.60;;
1376;SDS011;682;52.502;13.488;2023-02-15T00:54:46;40.70;;;26.38;;
1376;SDS011;682;52.502;13.488;2023-02-15T00:57:14;37.00;;;25.50;;
1376;SDS011;682;52.502;13.488;2023-02-15T00:59:43;40.92;;;26.00;;
1376;SDS011;682;52.502;13.488;2023-02-15T01:02:14;37.30;;;25.02;;
1376;SDS011;682;52.502;13.488;2023-02-15T01:04:43;36.13;;;24.67;;
1376;SDS011;682;52.502;13.488;2023-02-15T01:07:17;33.95;;;23.65;;
1376;SDS011;682;52.502;13.488;2023-02-15T01:09:45;38.78;;;26.77;;
1376;SDS011;682;52.502;13.488;2023-02-15T01:12:11;39.63;;;24.33;;
1376;SDS011;682;52.502;13.488;2023-02-15T01:14:40;34.75;;;23.70;;
1376;SDS011;682;52.502;13.488;2023-02-15T01:17:07;40.15;;;26.58;;
1376;SDS011;682;52.502;13.488;2023-02-15T01:19:34;40.35;;;25.38;;
1376;SDS011;682;52.502;13.488;2023-02-15T01:22:08;38.08;;;25.92;;
1376;SDS011;682;52.502;13.488;2023-02-15T01:24:38;41.55;;;26.52;;
1376;SDS011;682;52.502;13.488;2023-02-15T01:27:07;39.90;;;24.55;;
1376;SDS011;682;52.502;13.488;2023-02-15T01:29:34;35.92;;;24.17;;
1376;SDS011;682;52.502;13.488;2023-02-15T01:32:10;43.17;;;26.67;;
1376;SDS011;682;52.502;13.488;2023-02-15T01:34:37;38.83;;;24.38;;
1376;SDS011;682;52.502;13.488;2023-02-15T01:37:07;40.53;;;25.60;;
1376;SDS011;682;52.502;13.488;2023-02-15T01:39:38;39.45;;;26.58;;
1376;SDS011;682;52.502;13.488;2023-02-15T01:42:10;43.08;;;27.38;;
1376;SDS011;682;52.502;13.488;2023-02-15T01:44:46;41.22;;;25.95;;
1376;SDS011;682;52.502;13.488;2023-02-15T01:47:18;39.08;;;25.27;;
1376;SDS011;682;52.502;13.488;2023-02-15T01:49:56;35.63;;;23.85;;
1376;SDS011;682;52.502;13.488;2023-02-15T01:52:30;38.42;;;25.02;;
1376;SDS011;682;52.502;13.488;2023-02-15T01:55:07;43.38;;;26.73;;
1376;SDS011;682;52.502;13.488;2023-02-15T01:57:35;42.83;;;27.17;;
1376;SDS011;682;52.502;13.488;2023-02-15T02:00:28;42.95;;;25.67;;
1376;SDS011;682;52.502;13.488;2023-02-15T02:03:08;38.05;;;23.85;;
1376;SDS011;682;52.502;13.488;2023-02-15T02:05:35;39.22;;;25.27;;
1376;SDS011;682;52.502;13.488;2023-02-15T02:08:05;42.65;;;26.10;;
1376;SDS011;682;52.502;13.488;2023-02-15T02:10:38;46.60;;;29.38;;
1376;SDS011;682;52.502;13.488;2023-02-15T02:13:07;43.17;;;27.85;;
1376;SDS011;682;52.502;13.488;2023-02-15T02:15:39;41.78;;;27.50;;
1376;SDS011;682;52.502;13.488;2023-02-15T02:18:22;41.05;;;27.48;;
1376;SDS011;682;52.502;13.488;2023-02-15T02:21:09;43.85;;;28.33;;
1376;SDS011;682;52.502;13.488;2023-02-15T02:24:01;50.33;;;30.83;;
1376;SDS011;682;52.502;13.488;2023-02-15T02:36:30;47.22;;;29.88;;
1376;SDS011;682;52.502;13.488;2023-02-15T02:39:17;53.45;;;29.80;;
1376;SDS011;682;52.502;13.488;2023-02-15T02:41:58;52.25;;;30.38;;
1376;SDS011;682;52.502;13.488;2023-02-15T02:44:31;55.40;;;31.77;;
1376;SDS011;682;52.502;13.488;2023-02-15T02:47:18;52.25;;;30.45;;
1376;SDS011;682;52.502;13.488;2023-02-15T02:49:59;55.38;;;31.75;;
1376;SDS011;682;52.502;13.488;2023-02-15T02:52:39;59.92;;;34.53;;
1376;SDS011;682;52.502;13.488;2023-02-15T02:55:09;57.17;;;33.53;;
1376;SDS011;682;52.502;13.488;2023-02-15T02:57:51;57.25;;;35.55;;
1376;SDS011;682;52.502;13.488;2023-02-15T03:00:27;58.08;;;34.50;;
1376;SDS011;682;52.502;13.488;2023-02-15T03:03:12;61.13;;;33.28;;
1376;SDS011;682;52.502;13.488;2023-02-15T03:05:47;59.85;;;32.28;;
1376;SDS011;682;52.502;13.488;2023-02-15T03:08:18;61.72;;;34.30;;
1376;SDS011;682;52.502;13.488;2023-02-15T03:10:48;55.35;;;32.10;;
1376;SDS011;682;52.502;13.488;2023-02-15T03:13:19;62.08;;;33.20;;
1376;SDS011;682;52.502;13.488;2023-02-15T03:15:47;59.05;;;34.67;;
1376;SDS011;682;52.502;13.488;2023-02-15T03:18:35;57.22;;;35.15;;
1376;SDS011;682;52.502;13.488;2023-02-15T03:21:06;56.67;;;32.88;;
1376;SDS011;682;52.502;13.488;2023-02-15T03:23:47;61.97;;;35.40;;
1376;SDS011;682;52.502;13.488;2023-02-15T03:26:17;56.30;;;32.92;;
1376;SDS011;682;52.502;13.488;2023-02-15T03:28:47;58.35;;;33.40;;
1376;SDS011;682;52.502;13.488;2023-02-15T03:31:17;62.22;;;36.78;;
1376;SDS011;682;52.502;13.488;2023-02-15T03:33:49;59.13;;;32.10;;
1376;SDS011;682;52.502;13.488;2023-02-15T03:36:21;60.20;;;34.83;;
1376;SDS011;682;52.502;13.488;2023-02-15T03:38:55;58.75;;;34.60;;
1376;SDS011;682;52.502;13.488;2023-02-15T03:41:33;62.88;;;36.22;;
1376;SDS011;682;52.502;13.488;2023-02-15T03:44:05;60.35;;;35.55;;
1376;SDS011;682;52.502;13.488;2023-02-15T03:46:39;57.03;;;33.95;;
1376;SDS011;682;52.502;13.488;2023-02-15T03:49:12;65.32;;;35.70;;
1376;SDS011;682;52.502;13.488;2023-02-15T03:51:46;63.35;;;34.72;;
1376;SDS011;682;52.502;13.488;2023-02-15T03:54:16;63.05;;;34.88;;
1376;SDS011;682;52.502;13.488;2023-02-15T03:57:00;59.88;;;33.30;;
1376;SDS011;682;52.502;13.488;2023-02-15T03:59:45;61.47;;;35.30;;
1376;SDS011;682;52.502;13.488;2023-02-15T04:02:30;70.15;;;34.65;;
1376;SDS011;682;52.502;13.488;2023-02-15T04:05:07;65.95;;;35.17;;
1376;SDS011;682;52.502;13.488;2023-02-15T04:07:35;62.90;;;35.15;;
1376;SDS011;682;52.502;13.488;2023-02-15T04:10:02;56.22;;;32.78;;
1376;SDS011;682;52.502;13.488;2023-02-15T04:12:46;64.68;;;35.65;;
1376;SDS011;682;52.502;13.488;2023-02-15T04:15:13;58.80;;;33.10;;
1376;SDS011;682;52.502;13.488;2023-02-15T04:17:58;58.67;;;36.42;;
1376;SDS011;682;52.502;13.488;2023-02-15T04:20:28;65.43;;;33.38;;
1376;SDS011;682;52.502;13.488;2023-02-15T04:23:14;58.05;;;33.30;;
1376;SDS011;682;52.502;13.488;2023-02-15T04:26:02;58.85;;;33.78;;
1376;SDS011;682;52.502;13.488;2023-02-15T04:28:29;59.53;;;33.42;;
1376;SDS011;682;52.502;13.488;2023-02-15T04:30:57;59.53;;;33.55;;
1376;SDS011;682;52.502;13.488;2023-02-15T04:33:24;58.03;;;33.35;;
1376;SDS011;682;52.502;13.488;2023-02-15T04:35:53;60.45;;;33.50;;
1376;SDS011;682;52.502;13.488;2023-02-15T04:38:23;65.78;;;34.45;;
1376;SDS011;682;52.502;13.488;2023-02-15T04:40:50;61.65;;;32.67;;
1376;SDS011;682;52.502;13.488;2023-02-15T04:43:17;61.28;;;32.65;;
1376;SDS011;682;52.502;13.488;2023-02-15T04:45:47;57.38;;;32.70;;
1376;SDS011;682;52.502;13.488;2023-02-15T04:48:15;61.33;;;34.40;;
1376;SDS011;682;52.502;13.488;2023-02-15T04:50:42;64.07;;;34.10;;
1376;SDS011;682;52.502;13.488;2023-02-15T04:53:09;63.03;;;33.08;;
1376;SDS011;682;52.502;13.488;2023-02-15T04:55:38;68.43;;;32.95;;
1376;SDS011;682;52.502;13.488;2023-02-15T04:58:05;60.33;;;34.22;;
1376;SDS011;682;52.502;13.488;2023-02-15T05:00:34;58.90;;;33.17;;
1376;SDS011;682;52.502;13.488;2023-02-15T05:03:01;61.45;;;34.38;;
1376;SDS011;682;52.502;13.488;2023-02-15T05:05:28;63.58;;;33.42;;
1376;SDS011;682;52.502;13.488;2023-02-15T05:07:57;54.42;;;32.13;;
1376;SDS011;682;52.502;13.488;2023-02-15T05:10:24;59.67;;;34.75;;
1376;SDS011;682;52.502;13.488;2023-02-15T05:12:55;68.13;;;35.90;;
1376;SDS011;682;52.502;13.488;2023-02-15T05:15:22;59.53;;;34.00;;
1376;SDS011;682;52.502;13.488;2023-02-15T05:17:49;54.83;;;31.25;;
1376;SDS011;682;52.502;13.488;2023-02-15T05:21:20;55.97;;;32.05;;
1376;SDS011;682;52.502;13.488;2023-02-15T05:23:10;57.45;;;32.78;;
1376;SDS011;682;52.502;13.488;2023-02-15T05:25:37;57.03;;;31.63;;
1376;SDS011;682;52.502;13.488;2023-02-15T05:28:24;56.53;;;32.97;;
1376;SDS011;682;52.502;13.488;2023-02-15T05:31:01;60.17;;;33.72;;
1376;SDS011;682;52.502;13.488;2023-02-15T05:33:42;57.88;;;33.35;;
1376;SDS011;682;52.502;13.488;2023-02-15T05:36:11;61.10;;;34.40;;
1376;SDS011;682;52.502;13.488;2023-02-15T05:38:40;67.80;;;33.95;;
1376;SDS011;682;52.502;13.488;2023-02-15T05:41:08;61.45;;;34.85;;
1376;SDS011;682;52.502;13.488;2023-02-15T05:43:37;62.03;;;35.92;;
1376;SDS011;682;52.502;13.488;2023-02-15T05:46:05;60.25;;;33.72;;
1376;SDS011;682;52.502;13.488;2023-02-15T05:48:39;55.00;;;31.92;;
1376;SDS011;682;52.502;13.488;2023-02-15T05:51:07;64.45;;;34.13;;
1376;SDS011;682;52.502;13.488;2023-02-15T05:53:35;63.00;;;33.97;;
1376;SDS011;682;52.502;13.488;2023-02-15T05:56:04;69.28;;;37.20;;
1376;SDS011;682;52.502;13.488;2023-02-15T05:58:40;75.35;;;35.85;;
1376;SDS011;682;52.502;13.488;2023-02-15T06:01:08;70.32;;;38.42;;
1376;SDS011;682;52.502;13.488;2023-02-15T06:03:40;71.47;;;39.45;;
1376;SDS011;682;52.502;13.488;2023-02-15T06:06:10;70.20;;;37.60;;
1376;SDS011;682;52.502;13.488;2023-02-15T06:08:41;75.07;;;38.28;;
1376;SDS011;682;52.502;13.488;2023-02-15T06:11:10;70.97;;;35.65;;
1376;SDS011;682;52.502;13.488;2023-02-15T06:13:37;65.95;;;37.28;;
1376;SDS011;682;52.502;13.488;2023-02-15T06:16:06;73.15;;;37.70;;
1376;SDS011;682;52.502;13.488;2023-02-15T06:18:33;77.55;;;36.10;;
1376;SDS011;682;52.502;13.488;2023-02-15T06:21:11;76.63;;;35.30;;
1376;SDS011;682;52.502;13.488;2023-02-15T06:23:40;76.65;;;38.20;;
1376;SDS011;682;52.502;13.488;2023-02-15T06:26:19;77.07;;;37.33;;
1376;SDS011;682;52.502;13.488;2023-02-15T06:28:51;70.13;;;33.92;;
1376;SDS011;682;52.502;13.488;2023-02-15T06:31:23;65.35;;;33.38;;
1376;SDS011;682;52.502;13.488;2023-02-15T06:34:13;111.03;;;35.88;;
1376;SDS011;682;52.502;13.488;2023-02-15T06:36:59;84.25;;;35.95;;
1376;SDS011;682;52.502;13.488;2023-02-15T06:39:27;76.93;;;34.85;;
1376;SDS011;682;52.502;13.488;2023-02-15T06:41:56;85.53;;;36.67;;
1376;SDS011;682;52.502;13.488;2023-02-15T06:44:24;77.43;;;35.00;;
1376;SDS011;682;52.502;13.488;2023-02-15T06:47:01;79.93;;;33.28;;
1376;SDS011;682;52.502;13.488;2023-02-15T06:49:29;100.30;;;39.63;;
1376;SDS011;682;52.502;13.488;2023-02-15T06:51:58;87.97;;;36.95;;
1376;SDS011;682;52.502;13.488;2023-02-15T06:54:26;133.45;;;37.00;;
1376;SDS011;682;52.502;13.488;2023-02-15T06:56:55;99.85;;;35.72;;
1376;SDS011;682;52.502;13.488;2023-02-15T06:59:30;74.20;;;34.60;;
1376;SDS011;682;52.502;13.488;2023-02-15T07:01:58;94.97;;;35.47;;
1376;SDS011;682;52.502;13.488;2023-02-15T07:04:30;83.90;;;35.00;;
1376;SDS011;682;52.502;13.488;2023-02-15T07:06:59;94.10;;;37.55;;
1376;SDS011;682;52.502;13.488;2023-02-15T07:09:26;141.73;;;39.58;;
1376;SDS011;682;52.502;13.488;2023-02-15T07:11:53;93.20;;;37.17;;
1376;SDS011;682;52.502;13.488;2023-02-15T07:14:43;79.05;;;33.63;;
1376;SDS011;682;52.502;13.488;2023-02-15T07:20:14;92.90;;;37.35;;
1376;SDS011;682;52.502;13.488;2023-02-15T07:22:50;115.60;;;37.95;;
1376;SDS011;682;52.502;13.488;2023-02-15T07:25:19;105.80;;;37.90;;
1376;SDS011;682;52.502;13.488;2023-02-15T07:27:50;140.57;;;37.70;;
1376;SDS011;682;52.502;13.488;2023-02-15T07:30:29;112.47;;;35.30;;
1376;SDS011;682;52.502;13.488;2023-02-15T07:33:09;72.97;;;35.83;;
1376;SDS011;682;52.502;13.488;2023-02-15T07:36:01;91.60;;;37.45;;
1376;SDS011;682;52.502;13.488;2023-02-15T07:38:42;72.00;;;33.80;;
1376;SDS011;682;52.502;13.488;2023-02-15T07:41:19;132.95;;;38.67;;
1376;SDS011;682;52.502;13.488;2023-02-15T07:43:50;90.93;;;38.88;;
1376;SDS011;682;52.502;13.488;2023-02-15T07:46:22;98.55;;;34.65;;
1376;SDS011;682;52.502;13.488;2023-02-15T07:49:03;86.28;;;37.67;;
1376;SDS011;682;52.502;13.488;2023-02-15T07:51:40;89.40;;;36.33;;
1376;SDS011;682;52.502;13.488;2023-02-15T07:54:06;85.25;;;38.00;;
1376;SDS011;682;52.502;13.488;2023-02-15T07:56:33;109.05;;;37.88;;
1376;SDS011;682;52.502;13.488;2023-02-15T07:59:01;88.68;;;35.33;;
1376;SDS011;682;52.502;13.488;2023-02-15T08:01:30;130.68;;;39.40;;
1376;SDS011;682;52.502;13.488;2023-02-15T08:04:04;94.88;;;35.20;;
1376;SDS011;682;52.502;13.488;2023-02-15T08:06:34;75.18;;;34.22;;
1376;SDS011;682;52.502;13.488;2023-02-15T08:09:07;83.20;;;32.47;;
1376;SDS011;682;52.502;13.488;2023-02-15T08:11:37;78.63;;;35.00;;
1376;SDS011;682;52.502;13.488;2023-02-15T08:14:06;68.20;;;34.58;;
1376;SDS011;682;52.502;13.488;2023-02-15T08:16:35;86.70;;;37.40;;
1376;SDS011;682;52.502;13.488;2023-02-15T08:19:05;75.78;;;34.53;;
1376;SDS011;682;52.502;13.488;2023-02-15T08:21:34;71.05;;;34.00;;
1376;SDS011;682;52.502;13.488;2023-02-15T08:24:03;101.00;;;54.05;;
1376;SDS011;682;52.502;13.488;2023-02-15T08:29:33;64.30;;;35.88;;
1376;SDS011;682;52.502;13.488;2023-02-15T08:32:19;68.10;;;34.15;;
1376;SDS011;682;52.502;13.488;2023-02-15T08:37:39;72.40;;;34.00;;
1376;SDS011;682;52.502;13.488;2023-02-15T08:40:09;86.72;;;35.42;;
1376;SDS011;682;52.502;13.488;2023-02-15T08:42:41;78.68;;;36.40;;
1376;SDS011;682;52.502;13.488;2023-02-15T08:45:22;120.53;;;37.13;;
1376;SDS011;682;52.502;13.488;2023-02-15T08:48:03;82.63;;;33.80;;
1376;SDS011;682;52.502;13.488;2023-02-15T08:50:40;74.25;;;36.63;;
1376;SDS011;682;52.502;13.488;2023-02-15T08:53:12;68.60;;;33.45;;
1376;SDS011;682;52.502;13.488;2023-02-15T08:55:55;74.57;;;33.35;;
1376;SDS011;682;52.502;13.488;2023-02-15T08:58:29;66.53;;;33.38;;
1376;SDS011;682;52.502;13.488;2023-02-15T09:00:59;66.45;;;34.33;;
1376;SDS011;682;52.502;13.488;2023-02-15T09:03:29;66.13;;;33.13;;
1376;SDS011;682;52.502;13.488;2023-02-15T09:06:02;62.08;;;32.58;;
1376;SDS011;682;52.502;13.488;2023-02-15T09:08:39;69.93;;;32.63;;
1376;SDS011;682;52.502;13.488;2023-02-15T09:11:10;66.22;;;34.72;;
1376;SDS011;682;52.502;13.488;2023-02-15T09:13:49;96.43;;;35.13;;
1376;SDS011;682;52.502;13.488;2023-02-15T09:16:19;79.75;;;35.15;;
1376;SDS011;682;52.502;13.488;2023-02-15T09:19:03;71.35;;;35.40;;
1376;SDS011;682;52.502;13.488;2023-02-15T09:21:40;71.13;;;33.72;;
1376;SDS011;682;52.502;13.488;2023-02-15T09:24:11;56.30;;;30.92;;
1376;SDS011;682;52.502;13.488;2023-02-15T09:26:45;60.50;;;31.70;;
1376;SDS011;682;52.502;13.488;2023-02-15T09:29:16;60.58;;;31.25;;
1376;SDS011;682;52.502;13.488;2023-02-15T09:31:49;55.45;;;32.67;;
1376;SDS011;682;52.502;13.488;2023-02-15T09:34:19;60.85;;;33.17;;
1376;SDS011;682;52.502;13.488;2023-02-15T09:36:50;63.33;;;32.75;;
1376;SDS011;682;52.502;13.488;2023-02-15T09:39:20;59.38;;;32.63;;
1376;SDS011;682;52.502;13.488;2023-02-15T09:42:04;56.95;;;29.45;;
1376;SDS011;682;52.502;13.488;2023-02-15T09:45:09;42.13;;;26.73;;
1376;SDS011;682;52.502;13.488;2023-02-15T09:48:13;53.85;;;29.75;;
1376;SDS011;682;52.502;13.488;2023-02-15T09:51:00;50.33;;;29.08;;
1376;SDS011;682;52.502;13.488;2023-02-15T09:56:50;46.50;;;27.77;;
1376;SDS011;682;52.502;13.488;2023-02-15T09:59:24;45.65;;;28.88;;
1376;SDS011;682;52.502;13.488;2023-02-15T10:02:09;48.80;;;29.83;;
1376;SDS011;682;52.502;13.488;2023-02-15T10:04:54;48.28;;;30.67;;
1376;SDS011;682;52.502;13.488;2023-02-15T10:07:41;45.67;;;28.48;;
1376;SDS011;682;52.502;13.488;2023-02-15T10:10:40;49.13;;;29.35;;
1376;SDS011;682;52.502;13.488;2023-02-15T10:13:50;61.05;;;31.13;;
1376;SDS011;682;52.502;13.488;2023-02-15T10:16:41;56.47;;;29.95;;
1376;SDS011;682;52.502;13.488;2023-02-15T10:22:24;49.75;;;28.92;;
1376;SDS011;682;52.502;13.488;2023-02-15T10:25:22;50.35;;;28.33;;
1376;SDS011;682;52.502;13.488;2023-02-15T10:28:11;50.17;;;30.20;;
1376;SDS011;682;52.502;13.488;2023-02-15T10:30:50;44.00;;;28.10;;
1376;SDS011;682;52.502;13.488;2023-02-15T10:33:25;43.20;;;27.52;;
1376;SDS011;682;52.502;13.488;2023-02-15T10:36:16;45.22;;;28.73;;
1376;SDS011;682;52.502;13.488;2023-02-15T10:39:08;43.25;;;26.98;;
1376;SDS011;682;52.502;13.488;2023-02-15T10:41:50;49.95;;;30.48;;
1376;SDS011;682;52.502;13.488;2023-02-15T10:44:34;46.92;;;28.90;;
1376;SDS011;682;52.502;13.488;2023-02-15T10:47:23;40.83;;;27.70;;
1376;SDS011;682;52.502;13.488;2023-02-15T10:50:29;49.10;;;33.25;;
1376;SDS011;682;52.502;13.488;2023-02-15T10:56:29;38.97;;;25.77;;
1376;SDS011;682;52.502;13.488;2023-02-15T10:59:32;36.45;;;24.50;;
1376;SDS011;682;52.502;13.488;2023-02-15T11:02:20;36.47;;;25.27;;
1376;SDS011;682;52.502;13.488;2023-02-15T11:05:23;40.55;;;25.33;;
1376;SDS011;682;52.502;13.488;2023-02-15T11:08:10;31.40;;;22.57;;
1376;SDS011;682;52.502;13.488;2023-02-15T11:10:40;36.23;;;23.67;;
1376;SDS011;682;52.502;13.488;2023-02-15T11:13:23;32.90;;;23.37;;
1376;SDS011;682;52.502;13.488;2023-02-15T11:16:11;33.97;;;24.10;;
1376;SDS011;682;52.502;13.488;2023-02-15T11:18:57;37.80;;;25.07;;
1376;SDS011;682;52.502;13.488;2023-02-15T11:21:42;32.90;;;23.53;;
1376;SDS011;682;52.502;13.488;2023-02-15T11:24:18;33.57;;;22.73;;
1376;SDS011;682;52.502;13.488;2023-02-15T11:26:48;28.90;;;22.30;;
1376;SDS011;682;52.502;13.488;2023-02-15T11:29:33;29.80;;;21.57;;
1376;SDS011;682;52.502;13.488;2023-02-15T11:32:12;27.30;;;21.40;;
1376;SDS011;682;52.502;13.488;2023-02-15T11:34:50;29.60;;;22.67;;
1376;SDS011;682;52.502;13.488;2023-02-15T11:37:31;42.43;;;25.10;;
1376;SDS011;682;52.502;13.488;2023-02-15T11:40:12;27.30;;;22.77;;
1376;SDS011;682;52.502;13.488;2023-02-15T11:43:13;29.00;;;21.47;;
1376;SDS011;682;52.502;13.488;2023-02-15T11:45:52;33.43;;;22.43;;
1376;SDS011;682;52.502;13.488;2023-02-15T11:48:20;30.00;;;22.40;;
1376;SDS011;682;52.502;13.488;2023-02-15T11:50:52;29.03;;;21.20;;
1376;SDS011;682;52.502;13.488;2023-02-15T11:53:20;30.37;;;22.00;;
1376;SDS011;682;52.502;13.488;2023-02-15T11:55:59;29.93;;;23.23;;
1376;SDS011;682;52.502;13.488;2023-02-15T11:58:31;30.90;;;22.40;;
1376;SDS011;682;52.502;13.488;2023-02-15T12:01:09;28.43;;;21.77;;
1376;SDS011;682;52.502;13.488;2023-02-15T12:03:50;30.83;;;21.57;;
1376;SDS011;682;52.502;13.488;2023-02-15T12:06:22;32.80;;;22.90;;
1376;SDS011;682;52.502;13.488;2023-02-15T12:09:01;25.20;;;20.40;;
1376;SDS011;682;52.502;13.488;2023-02-15T12:11:38;35.07;;;22.67;;
1376;SDS011;682;52.502;13.488;2023-02-15T12:14:08;26.20;;;22.27;;
1376;SDS011;682;52.502;13.488;2023-02-15T12:16:42;28.03;;;20.70;;
1376;SDS011;682;52.502;13.488;2023-02-15T12:19:25;26.57;;;19.83;;
1376;SDS011;682;52.502;13.488;2023-02-15T12:22:05;22.60;;;17.77;;
1376;SDS011;682;52.502;13.488;2023-02-15T12:24:45;30.20;;;19.00;;
1376;SDS011;682;52.502;13.488;2023-02-15T12:27:28;29.73;;;21.37;;
1376;SDS011;682;52.502;13.488;2023-02-15T12:30:03;25.80;;;18.83;;
1376;SDS011;682;52.502;13.488;2023-02-15T12:32:54;27.33;;;20.30;;
1376;SDS011;682;52.502;13.488;2023-02-15T12:35:41;24.90;;;18.27;;
1376;SDS011;682;52.502;13.488;2023-02-15T12:38:21;25.77;;;19.00;;
1376;SDS011;682;52.502;13.488;2023-02-15T12:40:57;26.50;;;19.80;;
1376;SDS011;682;52.502;13.488;2023-02-15T12:43:32;25.10;;;19.63;;
1376;SDS011;682;52.502;13.488;2023-02-15T12:46:20;25.90;;;20.20;;
1376;SDS011;682;52.502;13.488;2023-02-15T12:49:04;27.93;;;21.70;;
1376;SDS011;682;52.502;13.488;2023-02-15T12:51:47;24.20;;;19.47;;
1376;SDS011;682;52.502;13.488;2023-02-15T12:54:32;32.93;;;20.80;;
1376;SDS011;682;52.502;13.488;2023-02-15T13:00:23;35.63;;;21.13;;
1376;SDS011;682;52.502;13.488;2023-02-15T13:02:54;28.97;;;20.10;;
1376;SDS011;682;52.502;13.488;2023-02-15T13:05:23;24.53;;;18.30;;
1376;SDS011;682;52.502;13.488;2023-02-15T13:08:02;28.47;;;19.17;;
1376;SDS011;682;52.502;13.488;2023-02-15T13:10:41;22.63;;;18.60;;
1376;SDS011;682;52.502;13.488;2023-02-15T13:13:22;29.37;;;19.60;;
1376;SDS011;682;52.502;13.488;2023-02-15T13:15:55;28.47;;;19.23;;
1376;SDS011;682;52.502;13.488;2023-02-15T13:18:35;27.30;;;21.70;;
1376;SDS011;682;52.502;13.488;2023-02-15T13:21:25;26.60;;;20.07;;
1376;SDS011;682;52.502;13.488;2023-02-15T13:24:01;24.93;;;19.27;;
1376;SDS011;682;52.502;13.488;2023-02-15T13:26:42;24.93;;;18.90;;
1376;SDS011;682;52.502;13.488;2023-02-15T13:29:23;22.10;;;17.77;;
1376;SDS011;682;52.502;13.488;2023-02-15T13:32:25;24.20;;;18.60;;
1376;SDS011;682;52.502;13.488;2023-02-15T13:35:03;27.27;;;19.60;;
1376;SDS011;682;52.502;13.488;2023-02-15T13:37:48;31.63;;;21.13;;
1376;SDS011;682;52.502;13.488;2023-02-15T13:40:30;26.40;;;19.33;;
1376;SDS011;682;52.502;13.488;2023-02-15T13:43:10;27.87;;;18.60;;
1376;SDS011;682;52.502;13.488;2023-02-15T13:46:03;24.57;;;18.50;;
1376;SDS011;682;52.502;13.488;2023-02-15T13:49:21;26.07;;;18.40;;
1376;SDS011;682;52.502;13.488;2023-02-15T13:52:13;26.03;;;17.70;;
1376;SDS011;682;52.502;13.488;2023-02-15T13:54:53;23.37;;;16.67;;
1376;SDS011;682;52.502;13.488;2023-02-15T13:57:43;25.13;;;17.80;;
1376;SDS011;682;52.502;13.488;2023-02-15T14:00:35;26.83;;;18.77;;
1376;SDS011;682;52.502;13.488;2023-02-15T14:03:41;36.17;;;19.53;;
1376;SDS011;682;52.502;13.488;2023-02-15T14:06:32;28.87;;;19.97;;
1376;SDS011;682;52.502;13.488;2023-02-15T14:09:40;25.00;;;17.17;;
1376;SDS011;682;52.502;13.488;2023-02-15T14:12:23;24.43;;;16.87;;
1376;SDS011;682;52.502;13.488;2023-02-15T14:18:12;27.93;;;18.40;;
1376;SDS011;682;52.502;13.488;2023-02-15T14:21:03;32.30;;;19.80;;
1376;SDS011;682;52.502;13.488;2023-02-15T14:27:24;28.33;;;18.57;;
1376;SDS011;682;52.502;13.488;2023-02-15T14:52:04;26.83;;;19.90;;
1376;SDS011;682;52.502;13.488;2023-02-15T14:55:00;30.67;;;18.30;;
1376;SDS011;682;52.502;13.488;2023-02-15T15:02:52;29.57;;;19.13;;
1376;SDS011;682;52.502;13.488;2023-02-15T15:18:02;27.07;;;19.07;;
1376;SDS011;682;52.502;13.488;2023-02-15T15:20:41;30.60;;;18.30;;
1376;SDS011;682;52.502;13.488;2023-02-15T15:26:32;25.00;;;18.17;;
1376;SDS011;682;52.502;13.488;2023-02-15T15:29:03;26.83;;;18.40;;
1376;SDS011;682;52.502;13.488;2023-02-15T15:31:35;25.90;;;18.90;;
1376;SDS011;682;52.502;13.488;2023-02-15T15:34:44;24.70;;;16.43;;
1376;SDS011;682;52.502;13.488;2023-02-15T15:40:42;27.50;;;18.50;;
1376;SDS011;682;52.502;13.488;2023-02-15T15:43:48;31.57;;;20.70;;
1376;SDS011;682;52.502;13.488;2023-02-15T15:47:00;27.80;;;18.10;;
1376;SDS011;682;52.502;13.488;2023-02-15T15:50:00;24.40;;;16.40;;
1376;SDS011;682;52.502;13.488;2023-02-15T15:52:40;32.90;;;19.40;;
1376;SDS011;682;52.502;13.488;2023-02-15T15:55:19;26.73;;;17.20;;
1376;SDS011;682;52.502;13.488;2023-02-15T15:58:02;23.53;;;16.87;;
1376;SDS011;682;52.502;13.488;2023-02-15T16:01:22;35.70;;;19.10;;
1376;SDS011;682;52.502;13.488;2023-02-15T16:03:52;25.20;;;18.27;;
1376;SDS011;682;52.502;13.488;2023-02-15T16:06:34;30.73;;;20.83;;
1376;SDS011;682;52.502;13.488;2023-02-15T16:09:11;25.20;;;16.70;;
1376;SDS011;682;52.502;13.488;2023-02-15T16:11:42;33.20;;;19.30;;
1376;SDS011;682;52.502;13.488;2023-02-15T16:14:11;33.80;;;19.73;;
1376;SDS011;682;52.502;13.488;2023-02-15T16:16:51;29.00;;;18.50;;
1376;SDS011;682;52.502;13.488;2023-02-15T16:19:26;37.10;;;19.30;;
1376;SDS011;682;52.502;13.488;2023-02-15T16:22:00;30.73;;;18.33;;
1376;SDS011;682;52.502;13.488;2023-02-15T16:27:52;32.47;;;20.43;;
1376;SDS011;682;52.502;13.488;2023-02-15T16:30:24;29.43;;;20.00;;
1376;SDS011;682;52.502;13.488;2023-02-15T16:33:15;31.13;;;18.77;;
1376;SDS011;682;52.502;13.488;2023-02-15T16:35:54;34.47;;;20.40;;
1376;SDS011;682;52.502;13.488;2023-02-15T16:38:38;33.60;;;21.10;;
1376;SDS011;682;52.502;13.488;2023-02-15T16:41:53;29.73;;;19.07;;
1376;SDS011;682;52.502;13.488;2023-02-15T16:44:54;38.50;;;20.20;;
1376;SDS011;682;52.502;13.488;2023-02-15T16:47:35;40.07;;;22.10;;
1376;SDS011;682;52.502;13.488;2023-02-15T16:50:22;31.50;;;21.50;;
1376;SDS011;682;52.502;13.488;2023-02-15T16:52:53;33.60;;;20.43;;
1376;SDS011;682;52.502;13.488;2023-02-15T16:55:34;40.33;;;22.03;;
1376;SDS011;682;52.502;13.488;2023-02-15T16:58:12;32.10;;;19.57;;
1376;SDS011;682;52.502;13.488;2023-02-15T17:00:59;37.17;;;21.07;;
1376;SDS011;682;52.502;13.488;2023-02-15T17:03:32;33.63;;;21.00;;
1376;SDS011;682;52.502;13.488;2023-02-15T17:06:03;43.27;;;22.40;;
1376;SDS011;682;52.502;13.488;2023-02-15T17:09:03;39.30;;;22.10;;
1376;SDS011;682;52.502;13.488;2023-02-15T17:11:54;36.83;;;21.30;;
1376;SDS011;682;52.502;13.488;2023-02-15T17:14:41;40.73;;;21.67;;
1376;SDS011;682;52.502;13.488;2023-02-15T17:17:11;32.77;;;21.10;;